sensor_id;sensor_type;location;lat;lon;timestamp;temperature;humidity
19174;DHT22;9719;49.322;8.536;2024-01-15T00:04:43;-2.40;99.90
19174;DHT22;9719;49.322;8.536;2024-01-15T00:09:45;-2.40;99.90
19174;DHT22;9719;49.322;8.536;2024-01-15T00:14:48;-2.40;99.90
19174;DHT22;9719;49.322;8.536;2024-01-15T00:19:50;-2.40;99.90
19174;DHT22;9719;49.322;8.536;2024-01-15T00:24:51;-2.40;99.90
19174;DHT22;9719;49.322;8.536;2024-01-15T00:29:54;-2.40;99.90
19174;DHT22;9719;49.322;8.536;2024-01-15T00:34:56;-2.30;99.90
19174;DHT22;9719;49.322;8.536;2024-01-15T00:39:58;-2.30;99.90
19174;DHT22;9719;49.322;8.536;2024-01-15T00:45:01;-2.30;99.90
19174;DHT22;9719;49.322;8.536;2024-01-15T00:50:03;-2.30;99.90
19174;DHT22;9719;49.322;8.536;2024-01-15T00:55:06;-2.20;99.90
19174;DHT22;9719;49.322;8.536;2024-01-15T01:00:10;-2.20;99.90
19174;DHT22;9719;49.322;8.536;2024-01-15T01:05:12;-2.20;99.90
19174;DHT22;9719;49.322;8.536;2024-01-15T01:10:13;-2.20;99.90
19174;DHT22;9719;49.322;8.536;2024-01-15T01:15:17;-2.20;99.90
19174;DHT22;9719;49.322;8.536;2024-01-15T01:20:18;-2.20;99.90
19174;DHT22;9719;49.322;8.536;2024-01-15T01:25:20;-2.10;99.90
19174;DHT22;9719;49.322;8.536;2024-01-15T01:30:23;-2.30;99.90
19174;DHT22;9719;49.322;8.536;2024-01-15T01:35:25;-2.20;99.90
19174;DHT22;9719;49.322;8.536;2024-01-15T01:40:26;-2.10;99.90
19174;DHT22;9719;49.322;8.536;2024-01-15T01:45:29;-2.10;99.90
19174;DHT22;9719;49.322;8.536;2024-01-15T01:50:31;-2.10;99.90
19174;DHT22;9719;49.322;8.536;2024-01-15T01:55:34;-2.10;99.90
19174;DHT22;9719;49.322;8.536;2024-01-15T02:00:37;-2.10;99.90
19174;DHT22;9719;49.322;8.536;2024-01-15T02:05:40;-2.10;99.90
19174;DHT22;9719;49.322;8.536;2024-01-15T02:10:41;-2.00;99.90
19174;DHT22;9719;49.322;8.536;2024-01-15T02:15:44;-2.10;99.90
19174;DHT22;9719;49.322;8.536;2024-01-15T02:20:46;-2.10;99.90
19174;DHT22;9719;49.322;8.536;2024-01-15T02:25:49;-2.10;99.90
19174;DHT22;9719;49.322;8.536;2024-01-15T02:30:51;-2.00;99.90
19174;DHT22;9719;49.322;8.536;2024-01-15T02:35:53;-2.00;99.90
19174;DHT22;9719;49.322;8.536;2024-01-15T02:40:56;-2.10;99.90
19174;DHT22;9719;49.322;8.536;2024-01-15T02:45:57;-2.20;99.90
19174;DHT22;9719;49.322;8.536;2024-01-15T02:50:59;-2.00;99.90
19174;DHT22;9719;49.322;8.536;2024-01-15T02:56:02;-2.00;99.90
19174;DHT22;9719;49.322;8.536;2024-01-15T03:01:04;-1.90;99.90
19174;DHT22;9719;49.322;8.536;2024-01-15T03:06:05;-2.00;99.90
19174;DHT22;9719;49.322;8.536;2024-01-15T03:11:08;-2.00;99.90
19174;DHT22;9719;49.322;8.536;2024-01-15T03:16:10;-2.00;99.90
19174;DHT22;9719;49.322;8.536;2024-01-15T03:21:12;-2.10;99.90
19174;DHT22;9719;49.322;8.536;2024-01-15T03:26:15;-2.00;99.90
19174;DHT22;9719;49.322;8.536;2024-01-15T03:31:16;-2.10;99.90
19174;DHT22;9719;49.322;8.536;2024-01-15T03:36:18;-2.00;99.90
19174;DHT22;9719;49.322;8.536;2024-01-15T03:41:21;-2.00;99.90
19174;DHT22;9719;49.322;8.536;2024-01-15T03:46:23;-2.10;99.90
19174;DHT22;9719;49.322;8.536;2024-01-15T03:51:24;-2.00;99.90
19174;DHT22;9719;49.322;8.536;2024-01-15T03:56:28;-2.00;99.90
19174;DHT22;9719;49.322;8.536;2024-01-15T04:01:29;-1.90;99.90
19174;DHT22;9719;49.322;8.536;2024-01-15T04:06:31;-1.80;99.90
19174;DHT22;9719;49.322;8.536;2024-01-15T04:11:34;-1.90;99.90
19174;DHT22;9719;49.322;8.536;2024-01-15T04:16:37;-1.80;99.90
19174;DHT22;9719;49.322;8.536;2024-01-15T04:21:39;-1.80;99.90
19174;DHT22;9719;49.322;8.536;2024-01-15T04:26:42;-1.80;99.90
19174;DHT22;9719;49.322;8.536;2024-01-15T04:31:43;-1.70;99.90
19174;DHT22;9719;49.322;8.536;2024-01-15T04:36:45;-1.70;99.90
19174;DHT22;9719;49.322;8.536;2024-01-15T04:41:48;-1.80;99.90
19174;DHT22;9719;49.322;8.536;2024-01-15T04:46:50;-1.80;99.90
19174;DHT22;9719;49.322;8.536;2024-01-15T04:51:51;-1.80;99.90
19174;DHT22;9719;49.322;8.536;2024-01-15T04:56:54;-1.80;99.90
19174;DHT22;9719;49.322;8.536;2024-01-15T05:01:56;-1.80;99.90
19174;DHT22;9719;49.322;8.536;2024-01-15T05:06:58;-1.80;99.90
19174;DHT22;9719;49.322;8.536;2024-01-15T05:12:01;-1.80;99.90
19174;DHT22;9719;49.322;8.536;2024-01-15T05:17:03;-1.80;99.90
19174;DHT22;9719;49.322;8.536;2024-01-15T05:22:05;-1.80;99.90
19174;DHT22;9719;49.322;8.536;2024-01-15T05:27:08;-1.80;99.90
19174;DHT22;9719;49.322;8.536;2024-01-15T05:32:09;-1.70;99.90
19174;DHT22;9719;49.322;8.536;2024-01-15T05:37:11;-1.70;99.90
19174;DHT22;9719;49.322;8.536;2024-01-15T05:42:15;-1.80;99.90
19174;DHT22;9719;49.322;8.536;2024-01-15T05:47:16;-1.70;99.90
19174;DHT22;9719;49.322;8.536;2024-01-15T05:52:19;-1.60;99.90
19174;DHT22;9719;49.322;8.536;2024-01-15T05:57:22;-1.70;99.90
19174;DHT22;9719;49.322;8.536;2024-01-15T06:02:24;-1.70;99.90
19174;DHT22;9719;49.322;8.536;2024-01-15T06:07:26;-1.70;99.90
19174;DHT22;9719;49.322;8.536;2024-01-15T06:12:29;-1.60;99.90
19174;DHT22;9719;49.322;8.536;2024-01-15T06:17:30;-1.70;99.90
19174;DHT22;9719;49.322;8.536;2024-01-15T06:22:33;-1.60;99.90
19174;DHT22;9719;49.322;8.536;2024-01-15T06:27:37;-1.50;99.90
19174;DHT22;9719;49.322;8.536;2024-01-15T06:32:39;-1.50;99.90
19174;DHT22;9719;49.322;8.536;2024-01-15T06:37:40;-1.50;99.90
19174;DHT22;9719;49.322;8.536;2024-01-15T06:42:43;-1.30;99.90
19174;DHT22;9719;49.322;8.536;2024-01-15T06:47:45;-1.20;99.90
19174;DHT22;9719;49.322;8.536;2024-01-15T06:52:47;-1.30;99.90
19174;DHT22;9719;49.322;8.536;2024-01-15T06:57:50;-1.20;99.90
19174;DHT22;9719;49.322;8.536;2024-01-15T07:02:51;-1.10;99.90
19174;DHT22;9719;49.322;8.536;2024-01-15T07:07:53;-1.10;99.90
19174;DHT22;9719;49.322;8.536;2024-01-15T07:12:56;-1.20;99.90
19174;DHT22;9719;49.322;8.536;2024-01-15T07:17:58;-1.20;99.90
19174;DHT22;9719;49.322;8.536;2024-01-15T07:22:59;-1.20;99.90
19174;DHT22;9719;49.322;8.536;2024-01-15T07:28:03;-1.20;99.90
19174;DHT22;9719;49.322;8.536;2024-01-15T07:33:05;-1.20;99.90
19174;DHT22;9719;49.322;8.536;2024-01-15T07:38:07;-1.20;99.90
19174;DHT22;9719;49.322;8.536;2024-01-15T07:43:10;-1.20;99.90
19174;DHT22;9719;49.322;8.536;2024-01-15T07:48:12;-1.20;99.90
19174;DHT22;9719;49.322;8.536;2024-01-15T07:53:14;-1.10;99.90
19174;DHT22;9719;49.322;8.536;2024-01-15T07:58:17;-1.20;99.90
19174;DHT22;9719;49.322;8.536;2024-01-15T08:03:19;-1.10;99.90
19174;DHT22;9719;49.322;8.536;2024-01-15T08:08:20;-1.00;99.90
19174;DHT22;9719;49.322;8.536;2024-01-15T08:13:26;-0.90;99.90
19174;DHT22;9719;49.322;8.536;2024-01-15T08:18:28;-0.70;99.90
19174;DHT22;9719;49.322;8.536;2024-01-15T08:23:30;-0.80;99.90
19174;DHT22;9719;49.322;8.536;2024-01-15T08:28:33;-0.80;99.90
19174;DHT22;9719;49.322;8.536;2024-01-15T08:33:34;-0.70;99.90
19174;DHT22;9719;49.322;8.536;2024-01-15T08:38:36;-0.70;99.90
19174;DHT22;9719;49.322;8.536;2024-01-15T08:43:39;-0.60;99.90
19174;DHT22;9719;49.322;8.536;2024-01-15T08:48:41;-0.60;99.90
19174;DHT22;9719;49.322;8.536;2024-01-15T08:53:43;-0.60;99.90
19174;DHT22;9719;49.322;8.536;2024-01-15T08:58:46;-0.40;99.90
19174;DHT22;9719;49.322;8.536;2024-01-15T09:03:48;-0.20;99.90
19174;DHT22;9719;49.322;8.536;2024-01-15T09:08:49;-0.20;99.90
19174;DHT22;9719;49.322;8.536;2024-01-15T09:13:52;-0.10;99.90
19174;DHT22;9719;49.322;8.536;2024-01-15T09:18:54;-0.10;99.90
19174;DHT22;9719;49.322;8.536;2024-01-15T09:23:57;0.00;99.90
19174;DHT22;9719;49.322;8.536;2024-01-15T09:29:00;0.10;99.90
19174;DHT22;9719;49.322;8.536;2024-01-15T09:34:03;0.00;99.90
19174;DHT22;9719;49.322;8.536;2024-01-15T09:39:04;0.00;99.90
19174;DHT22;9719;49.322;8.536;2024-01-15T09:44:10;0.10;99.90
19174;DHT22;9719;49.322;8.536;2024-01-15T09:49:13;0.20;99.90
19174;DHT22;9719;49.322;8.536;2024-01-15T09:54:15;0.10;99.90
19174;DHT22;9719;49.322;8.536;2024-01-15T09:59:19;0.10;99.90
19174;DHT22;9719;49.322;8.536;2024-01-15T10:04:21;0.40;99.90
19174;DHT22;9719;49.322;8.536;2024-01-15T10:09:23;0.20;99.90
19174;DHT22;9719;49.322;8.536;2024-01-15T10:14:26;0.20;99.90
19174;DHT22;9719;49.322;8.536;2024-01-15T10:19:28;0.30;99.90
19174;DHT22;9719;49.322;8.536;2024-01-15T10:24:32;0.10;99.90
19174;DHT22;9719;49.322;8.536;2024-01-15T10:29:35;0.00;99.90
19174;DHT22;9719;49.322;8.536;2024-01-15T10:34:38;-0.10;99.90
19174;DHT22;9719;49.322;8.536;2024-01-15T10:39:41;0.00;99.90
19174;DHT22;9719;49.322;8.536;2024-01-15T10:44:44;-0.10;99.90
19174;DHT22;9719;49.322;8.536;2024-01-15T10:49:47;0.00;99.90
19174;DHT22;9719;49.322;8.536;2024-01-15T10:54:49;0.20;99.90
19174;DHT22;9719;49.322;8.536;2024-01-15T10:59:52;0.10;99.90
19174;DHT22;9719;49.322;8.536;2024-01-15T11:04:54;0.10;99.90
19174;DHT22;9719;49.322;8.536;2024-01-15T11:09:56;0.30;99.90
19174;DHT22;9719;49.322;8.536;2024-01-15T11:15:03;0.10;99.90
19174;DHT22;9719;49.322;8.536;2024-01-15T11:20:06;0.20;99.90
19174;DHT22;9719;49.322;8.536;2024-01-15T11:25:13;0.20;99.90
19174;DHT22;9719;49.322;8.536;2024-01-15T11:30:17;0.20;99.90
19174;DHT22;9719;49.322;8.536;2024-01-15T11:35:20;0.30;99.90
19174;DHT22;9719;49.322;8.536;2024-01-15T11:40:24;0.30;99.90
19174;DHT22;9719;49.322;8.536;2024-01-15T11:45:39;0.40;99.90
19174;DHT22;9719;49.322;8.536;2024-01-15T11:50:42;0.40;99.90
19174;DHT22;9719;49.322;8.536;2024-01-15T11:55:45;0.30;99.90
19174;DHT22;9719;49.322;8.536;2024-01-15T12:00:53;0.40;99.90
19174;DHT22;9719;49.322;8.536;2024-01-15T12:05:55;0.50;99.90
19174;DHT22;9719;49.322;8.536;2024-01-15T12:10:57;0.40;99.90
19174;DHT22;9719;49.322;8.536;2024-01-15T12:16:01;0.30;99.90
19174;DHT22;9719;49.322;8.536;2024-01-15T12:21:04;0.30;99.90
19174;DHT22;9719;49.322;8.536;2024-01-15T12:26:06;0.30;99.90
19174;DHT22;9719;49.322;8.536;2024-01-15T12:31:09;0.20;99.90
19174;DHT22;9719;49.322;8.536;2024-01-15T12:36:13;0.20;99.90
19174;DHT22;9719;49.322;8.536;2024-01-15T12:41:14;0.30;99.90
19174;DHT22;9719;49.322;8.536;2024-01-15T12:46:18;0.20;99.90
19174;DHT22;9719;49.322;8.536;2024-01-15T12:51:24;0.30;99.90
19174;DHT22;9719;49.322;8.536;2024-01-15T12:56:26;0.50;99.90
19174;DHT22;9719;49.322;8.536;2024-01-15T13:01:29;0.60;99.90
19174;DHT22;9719;49.322;8.536;2024-01-15T13:06:30;0.70;99.90
19174;DHT22;9719;49.322;8.536;2024-01-15T13:11:32;0.70;99.90
19174;DHT22;9719;49.322;8.536;2024-01-15T13:16:35;0.70;99.90
19174;DHT22;9719;49.322;8.536;2024-01-15T13:21:37;0.60;99.90
19174;DHT22;9719;49.322;8.536;2024-01-15T13:26:39;0.80;99.90
19174;DHT22;9719;49.322;8.536;2024-01-15T13:31:42;1.00;99.90
19174;DHT22;9719;49.322;8.536;2024-01-15T13:36:46;1.10;99.90
19174;DHT22;9719;49.322;8.536;2024-01-15T13:41:48;1.00;99.90
19174;DHT22;9719;49.322;8.536;2024-01-15T13:46:51;0.90;99.90
19174;DHT22;9719;49.322;8.536;2024-01-15T13:51:53;1.00;99.90
19174;DHT22;9719;49.322;8.536;2024-01-15T13:56:55;1.10;99.90
19174;DHT22;9719;49.322;8.536;2024-01-15T14:01:58;1.30;99.90
19174;DHT22;9719;49.322;8.536;2024-01-15T14:06:59;1.40;99.90
19174;DHT22;9719;49.322;8.536;2024-01-15T14:12:01;1.60;99.90
19174;DHT22;9719;49.322;8.536;2024-01-15T14:17:04;1.70;99.90
19174;DHT22;9719;49.322;8.536;2024-01-15T14:22:06;2.00;99.90
19174;DHT22;9719;49.322;8.536;2024-01-15T14:27:08;1.90;99.90
19174;DHT22;9719;49.322;8.536;2024-01-15T14:32:11;2.10;99.90
19174;DHT22;9719;49.322;8.536;2024-01-15T14:37:13;2.20;99.90
19174;DHT22;9719;49.322;8.536;2024-01-15T14:42:15;2.10;99.90
19174;DHT22;9719;49.322;8.536;2024-01-15T14:47:18;2.10;99.90
19174;DHT22;9719;49.322;8.536;2024-01-15T14:52:19;1.90;99.90
19174;DHT22;9719;49.322;8.536;2024-01-15T14:57:21;1.70;99.90
19174;DHT22;9719;49.322;8.536;2024-01-15T15:02:25;1.60;99.90
19174;DHT22;9719;49.322;8.536;2024-01-15T15:07:28;1.60;99.90
19174;DHT22;9719;49.322;8.536;2024-01-15T15:12:30;1.60;99.90
19174;DHT22;9719;49.322;8.536;2024-01-15T15:17:33;1.70;99.90
19174;DHT22;9719;49.322;8.536;2024-01-15T15:22:36;1.70;99.90
19174;DHT22;9719;49.322;8.536;2024-01-15T15:27:37;1.60;99.90
19174;DHT22;9719;49.322;8.536;2024-01-15T15:32:41;1.50;99.90
19174;DHT22;9719;49.322;8.536;2024-01-15T15:37:43;1.40;99.90
19174;DHT22;9719;49.322;8.536;2024-01-15T15:42:45;1.50;99.90
19174;DHT22;9719;49.322;8.536;2024-01-15T15:47:48;1.50;99.90
19174;DHT22;9719;49.322;8.536;2024-01-15T15:52:49;1.40;99.90
19174;DHT22;9719;49.322;8.536;2024-01-15T15:57:51;1.50;99.90
19174;DHT22;9719;49.322;8.536;2024-01-15T16:02:54;1.60;99.90
19174;DHT22;9719;49.322;8.536;2024-01-15T16:07:56;1.50;99.90
19174;DHT22;9719;49.322;8.536;2024-01-15T16:12:58;1.40;99.90
19174;DHT22;9719;49.322;8.536;2024-01-15T16:18:01;1.30;99.90
19174;DHT22;9719;49.322;8.536;2024-01-15T16:23:02;1.20;99.90
19174;DHT22;9719;49.322;8.536;2024-01-15T16:28:04;1.00;99.90
19174;DHT22;9719;49.322;8.536;2024-01-15T16:33:07;1.00;99.90
19174;DHT22;9719;49.322;8.536;2024-01-15T16:38:09;0.90;99.90
19174;DHT22;9719;49.322;8.536;2024-01-15T16:43:12;0.70;99.90
19174;DHT22;9719;49.322;8.536;2024-01-15T16:48:15;0.70;99.90
19174;DHT22;9719;49.322;8.536;2024-01-15T16:53:16;0.60;99.90
19174;DHT22;9719;49.322;8.536;2024-01-15T16:58:18;0.50;99.90
19174;DHT22;9719;49.322;8.536;2024-01-15T17:03:21;0.40;99.90
19174;DHT22;9719;49.322;8.536;2024-01-15T17:08:23;0.30;99.90
19174;DHT22;9719;49.322;8.536;2024-01-15T17:13:25;0.40;99.90
19174;DHT22;9719;49.322;8.536;2024-01-15T17:18:29;0.40;99.90
19174;DHT22;9719;49.322;8.536;2024-01-15T17:23:30;0.60;99.90
19174;DHT22;9719;49.322;8.536;2024-01-15T17:28:32;0.60;99.90
19174;DHT22;9719;49.322;8.536;2024-01-15T17:33:35;0.70;99.90
19174;DHT22;9719;49.322;8.536;2024-01-15T17:38:37;0.70;99.90
19174;DHT22;9719;49.322;8.536;2024-01-15T17:43:39;0.60;99.90
19174;DHT22;9719;49.322;8.536;2024-01-15T17:48:42;0.70;99.90
19174;DHT22;9719;49.322;8.536;2024-01-15T17:53:44;0.70;99.90
19174;DHT22;9719;49.322;8.536;2024-01-15T17:58:45;0.60;99.90
19174;DHT22;9719;49.322;8.536;2024-01-15T18:03:49;0.60;99.90
19174;DHT22;9719;49.322;8.536;2024-01-15T18:08:51;0.50;99.90
19174;DHT22;9719;49.322;8.536;2024-01-15T18:13:53;0.50;99.90
19174;DHT22;9719;49.322;8.536;2024-01-15T18:18:56;0.60;99.90
19174;DHT22;9719;49.322;8.536;2024-01-15T18:23:57;0.70;99.90
19174;DHT22;9719;49.322;8.536;2024-01-15T18:28:59;0.80;99.90
19174;DHT22;9719;49.322;8.536;2024-01-15T18:34:02;0.70;99.90
19174;DHT22;9719;49.322;8.536;2024-01-15T18:39:04;0.70;99.90
19174;DHT22;9719;49.322;8.536;2024-01-15T18:44:06;0.50;99.90
19174;DHT22;9719;49.322;8.536;2024-01-15T18:49:09;0.40;99.90
19174;DHT22;9719;49.322;8.536;2024-01-15T18:54:11;0.50;99.90
19174;DHT22;9719;49.322;8.536;2024-01-15T18:59:13;0.40;99.90
19174;DHT22;9719;49.322;8.536;2024-01-15T19:04:16;0.40;99.90
19174;DHT22;9719;49.322;8.536;2024-01-15T19:09:18;0.30;99.90
19174;DHT22;9719;49.322;8.536;2024-01-15T19:14:19;0.30;99.90
19174;DHT22;9719;49.322;8.536;2024-01-15T19:19:22;0.30;99.90
19174;DHT22;9719;49.322;8.536;2024-01-15T19:24:24;0.20;99.90
19174;DHT22;9719;49.322;8.536;2024-01-15T19:29:26;0.20;99.90
19174;DHT22;9719;49.322;8.536;2024-01-15T19:34:29;0.20;99.90
19174;DHT22;9719;49.322;8.536;2024-01-15T19:39:30;0.30;99.90
19174;DHT22;9719;49.322;8.536;2024-01-15T19:44:33;0.30;99.90
19174;DHT22;9719;49.322;8.536;2024-01-15T19:49:35;0.40;99.90
19174;DHT22;9719;49.322;8.536;2024-01-15T19:54:40;0.50;99.90
19174;DHT22;9719;49.322;8.536;2024-01-15T19:59:42;0.70;99.90
19174;DHT22;9719;49.322;8.536;2024-01-15T20:04:45;0.50;99.90
19174;DHT22;9719;49.322;8.536;2024-01-15T20:09:47;0.40;99.90
19174;DHT22;9719;49.322;8.536;2024-01-15T20:14:49;0.40;99.90
19174;DHT22;9719;49.322;8.536;2024-01-15T20:19:52;0.30;99.90
19174;DHT22;9719;49.322;8.536;2024-01-15T20:24:54;0.30;99.90
19174;DHT22;9719;49.322;8.536;2024-01-15T20:29:56;0.30;99.90
19174;DHT22;9719;49.322;8.536;2024-01-15T20:34:59;0.40;99.90
19174;DHT22;9719;49.322;8.536;2024-01-15T20:40:01;0.30;99.90
19174;DHT22;9719;49.322;8.536;2024-01-15T20:45:04;0.20;99.90
19174;DHT22;9719;49.322;8.536;2024-01-15T20:50:08;0.10;99.90
19174;DHT22;9719;49.322;8.536;2024-01-15T20:55:09;0.00;99.90
19174;DHT22;9719;49.322;8.536;2024-01-15T21:00:12;-0.10;99.90
19174;DHT22;9719;49.322;8.536;2024-01-15T21:05:15;-0.20;99.90
19174;DHT22;9719;49.322;8.536;2024-01-15T21:10:18;-0.50;99.90
19174;DHT22;9719;49.322;8.536;2024-01-15T21:15:20;-0.60;99.90
19174;DHT22;9719;49.322;8.536;2024-01-15T21:20:23;-0.70;99.90
19174;DHT22;9719;49.322;8.536;2024-01-15T21:25:25;-0.70;99.90
19174;DHT22;9719;49.322;8.536;2024-01-15T21:30:26;-0.80;99.90
19174;DHT22;9719;49.322;8.536;2024-01-15T21:35:29;-0.90;99.90
19174;DHT22;9719;49.322;8.536;2024-01-15T21:40:32;-0.90;99.90
19174;DHT22;9719;49.322;8.536;2024-01-15T21:45:35;-1.00;99.90
19174;DHT22;9719;49.322;8.536;2024-01-15T21:50:39;-1.00;99.90
19174;DHT22;9719;49.322;8.536;2024-01-15T21:55:41;-1.20;99.90
19174;DHT22;9719;49.322;8.536;2024-01-15T22:00:42;-0.90;99.90
19174;DHT22;9719;49.322;8.536;2024-01-15T22:05:45;-0.90;99.90
19174;DHT22;9719;49.322;8.536;2024-01-15T22:10:48;-1.00;99.90
19174;DHT22;9719;49.322;8.536;2024-01-15T22:15:49;-1.00;99.90
19174;DHT22;9719;49.322;8.536;2024-01-15T22:20:52;-0.80;99.90
19174;DHT22;9719;49.322;8.536;2024-01-15T22:25:54;-0.90;99.90
19174;DHT22;9719;49.322;8.536;2024-01-15T22:30:56;-0.70;99.90
19174;DHT22;9719;49.322;8.536;2024-01-15T22:35:59;-0.70;99.90
19174;DHT22;9719;49.322;8.536;2024-01-15T22:41:00;-0.70;99.90
19174;DHT22;9719;49.322;8.536;2024-01-15T22:46:02;-0.80;99.90
19174;DHT22;9719;49.322;8.536;2024-01-15T22:51:06;-0.70;99.90
19174;DHT22;9719;49.322;8.536;2024-01-15T22:56:08;-0.60;99.90
19174;DHT22;9719;49.322;8.536;2024-01-15T23:01:10;-0.80;99.90
19174;DHT22;9719;49.322;8.536;2024-01-15T23:06:19;-1.00;99.90
19174;DHT22;9719;49.322;8.536;2024-01-15T23:11:20;-1.20;99.90
19174;DHT22;9719;49.322;8.536;2024-01-15T23:16:23;-1.40;99.90
19174;DHT22;9719;49.322;8.536;2024-01-15T23:21:26;-1.20;99.90
19174;DHT22;9719;49.322;8.536;2024-01-15T23:26:28;-1.40;99.90
19174;DHT22;9719;49.322;8.536;2024-01-15T23:31:29;-1.40;99.90
19174;DHT22;9719;49.322;8.536;2024-01-15T23:36:32;-1.40;99.90
19174;DHT22;9719;49.322;8.536;2024-01-15T23:41:34;-1.50;99.90
19174;DHT22;9719;49.322;8.536;2024-01-15T23:46:36;-1.40;99.90
19174;DHT22;9719;49.322;8.536;2024-01-15T23:51:39;-1.40;99.90
19174;DHT22;9719;49.322;8.536;2024-01-15T23:56:41;-1.30;99.90
